createdAt,value
2018-07-14T00:00:20.119Z,18.80
2018-07-14T00:02:50.853Z,18.80
2018-07-14T00:05:20.016Z,18.80
2018-07-14T00:10:26.122Z,18.70
2018-07-14T00:12:56.313Z,18.70
2018-07-14T00:15:25.185Z,18.70
2018-07-14T00:17:55.837Z,18.60
2018-07-14T00:20:24.962Z,18.60
2018-07-14T00:22:53.929Z,18.60
2018-07-14T00:25:29.885Z,18.50
2018-07-14T00:27:58.776Z,18.50
2018-07-14T00:30:27.689Z,18.40
2018-07-14T00:32:58.507Z,18.40
2018-07-14T00:35:27.872Z,18.30
2018-07-14T00:37:56.779Z,18.30
2018-07-14T00:40:27.355Z,18.20
2018-07-14T00:42:57.791Z,18.30
2018-07-14T00:45:26.860Z,18.30
2018-07-14T00:47:57.800Z,18.20
2018-07-14T00:50:26.715Z,18.10
2018-07-14T00:52:55.965Z,18.20
2018-07-14T00:55:25.132Z,18.10
2018-07-14T00:57:54.050Z,18.10
2018-07-14T01:00:24.821Z,17.90
2018-07-14T01:02:55.195Z,18.00
2018-07-14T01:05:32.344Z,17.90
2018-07-14T01:08:03.215Z,17.90
2018-07-14T01:10:33.385Z,17.90
2018-07-14T01:13:03.865Z,17.90
2018-07-14T01:15:33.347Z,17.90
2018-07-14T01:18:03.933Z,17.90
2018-07-14T01:20:33.379Z,17.90
2018-07-14T01:23:02.317Z,17.70
2018-07-14T01:25:32.632Z,17.70
2018-07-14T01:28:01.822Z,17.60
2018-07-14T01:30:31.008Z,17.50
2018-07-14T01:33:01.747Z,17.50
2018-07-14T01:35:31.050Z,17.60
2018-07-14T01:38:00.104Z,17.50
2018-07-14T01:43:00.888Z,17.60
2018-07-14T01:45:30.087Z,17.70
2018-07-14T01:48:00.994Z,17.50
2018-07-14T01:50:30.128Z,17.50
2018-07-14T01:52:59.906Z,17.30
2018-07-14T01:55:29.001Z,17.20
2018-07-14T01:57:59.879Z,17.20
2018-07-14T02:00:28.860Z,17.20
2018-07-14T02:03:07.233Z,17.10
2018-07-14T02:05:36.589Z,17.10
2018-07-14T02:08:07.423Z,17.30
2018-07-14T02:10:38.363Z,17.30
2018-07-14T02:15:37.575Z,17.10
2018-07-14T02:18:08.218Z,17.10
2018-07-14T02:23:06.914Z,17.10
2018-07-14T02:25:37.450Z,17.00
2018-07-14T02:28:06.523Z,17.10
2018-07-14T02:30:36.425Z,17.10
2018-07-14T02:33:07.206Z,17.00
2018-07-14T02:38:06.696Z,16.90
2018-07-14T02:40:37.047Z,17.00
2018-07-14T02:45:35.912Z,16.90
2018-07-14T02:48:06.763Z,16.90
2018-07-14T02:50:35.718Z,16.90
2018-07-14T02:53:05.082Z,16.90
2018-07-14T02:55:34.906Z,16.80
2018-07-14T02:58:09.250Z,16.80
2018-07-14T03:00:46.330Z,16.80
2018-07-14T03:03:16.324Z,16.80
2018-07-14T03:05:46.120Z,16.70
2018-07-14T03:08:17.616Z,16.70
2018-07-14T03:10:48.110Z,16.70
2018-07-14T03:13:17.039Z,16.70
2018-07-14T03:15:47.835Z,16.60
2018-07-14T03:18:18.581Z,16.70
2018-07-14T03:20:47.499Z,16.60
2018-07-14T03:23:24.586Z,16.60
2018-07-14T03:25:55.052Z,16.60
2018-07-14T03:28:24.127Z,16.60
2018-07-14T03:30:53.594Z,16.50
2018-07-14T03:33:24.340Z,16.40
2018-07-14T03:38:22.355Z,16.30
2018-07-14T03:40:51.961Z,16.40
2018-07-14T03:43:22.514Z,16.50
2018-07-14T03:45:53.293Z,16.60
2018-07-14T03:48:24.129Z,16.60
2018-07-14T03:50:53.214Z,16.50
2018-07-14T03:53:22.611Z,16.50
2018-07-14T03:55:51.988Z,16.40
2018-07-14T03:58:22.765Z,16.40
2018-07-14T04:00:55.619Z,16.60
2018-07-14T04:03:24.952Z,16.60
2018-07-14T04:05:54.110Z,16.50
2018-07-14T04:08:24.969Z,16.30
2018-07-14T04:10:56.092Z,16.40
2018-07-14T04:13:25.226Z,16.50
2018-07-14T04:18:25.871Z,16.60
2018-07-14T04:20:55.037Z,16.70
2018-07-14T04:23:28.180Z,16.60
2018-07-14T04:25:58.807Z,16.60
2018-07-14T04:33:26.851Z,16.50
2018-07-14T04:35:55.945Z,16.50
2018-07-14T04:38:25.404Z,16.70
2018-07-14T04:40:54.855Z,16.60
2018-07-14T04:43:25.508Z,16.60
2018-07-14T04:45:56.380Z,16.60
2018-07-14T04:50:56.552Z,16.80
2018-07-14T04:53:26.052Z,16.80
2018-07-14T04:55:57.744Z,16.80
2018-07-14T04:58:28.313Z,16.80
2018-07-14T05:01:00.863Z,16.90
2018-07-14T05:03:29.823Z,16.90
2018-07-14T05:05:59.335Z,16.90
2018-07-14T05:08:29.597Z,17.00
2018-07-14T05:11:00.545Z,16.90
2018-07-14T05:13:29.656Z,16.90
2018-07-14T05:16:00.715Z,17.00
2018-07-14T05:18:31.769Z,17.00
2018-07-14T05:21:00.761Z,17.00
2018-07-14T05:23:31.571Z,17.10
2018-07-14T05:26:02.914Z,17.20
2018-07-14T05:28:32.086Z,17.20
2018-07-14T05:31:01.178Z,17.20
2018-07-14T05:33:31.946Z,17.30
2018-07-14T05:36:00.908Z,17.30
2018-07-14T05:38:30.103Z,17.40
2018-07-14T05:40:59.098Z,17.50
2018-07-14T05:43:29.551Z,17.50
2018-07-14T05:46:01.120Z,17.60
2018-07-14T05:51:00.454Z,17.70
2018-07-14T05:53:33.623Z,17.70
2018-07-14T05:56:02.589Z,17.80
2018-07-14T05:58:33.177Z,17.90
2018-07-14T06:01:02.110Z,18.00
2018-07-14T06:03:31.047Z,18.10
2018-07-14T06:11:02.939Z,18.30
2018-07-14T06:16:02.217Z,18.40
2018-07-14T06:18:32.889Z,18.50
2018-07-14T06:21:01.825Z,18.60
2018-07-14T06:23:34.390Z,18.70
2018-07-14T06:26:04.995Z,18.80
2018-07-14T06:28:34.088Z,18.90
2018-07-14T06:31:03.055Z,19.00
2018-07-14T06:33:34.377Z,19.10
2018-07-14T06:36:03.340Z,19.20
2018-07-14T06:38:32.749Z,19.30
2018-07-14T06:41:01.636Z,19.50
2018-07-14T06:46:03.049Z,19.70
2018-07-14T06:48:33.819Z,19.80
2018-07-14T06:51:09.775Z,20.00
2018-07-14T06:53:38.980Z,20.20
2018-07-14T06:56:07.964Z,20.40
2018-07-14T06:58:38.404Z,20.60
2018-07-14T07:03:36.912Z,21.10
2018-07-14T07:06:07.639Z,21.30
2018-07-14T07:08:38.775Z,21.50
2018-07-14T07:11:09.555Z,21.70
2018-07-14T07:13:38.807Z,21.80
2018-07-14T07:16:09.665Z,22.00
2018-07-14T07:18:40.383Z,21.90
2018-07-14T07:21:09.308Z,22.10
2018-07-14T07:23:39.927Z,22.30
2018-07-14T07:26:10.071Z,22.40
2018-07-14T07:28:39.022Z,22.60
2018-07-14T07:31:14.791Z,22.50
2018-07-14T07:33:43.743Z,22.60
2018-07-14T07:36:13.085Z,22.80
2018-07-14T07:38:41.999Z,23.00
2018-07-14T07:41:19.583Z,23.10
2018-07-14T07:43:48.559Z,23.10
2018-07-14T07:46:25.337Z,23.30
2018-07-14T07:48:56.427Z,23.60
2018-07-14T07:51:25.493Z,23.70
2018-07-14T07:53:54.486Z,23.60
2018-07-14T07:56:24.856Z,23.50
2018-07-14T07:58:55.385Z,23.80
2018-07-14T08:01:24.659Z,23.90
2018-07-14T08:03:54.055Z,24.00
2018-07-14T08:06:36.329Z,24.00
2018-07-14T08:09:05.943Z,24.10
2018-07-14T08:11:36.229Z,24.20
2018-07-14T08:14:05.147Z,24.40
2018-07-14T08:16:35.485Z,24.70
2018-07-14T08:19:06.053Z,24.60
2018-07-14T08:21:35.068Z,24.50
2018-07-14T08:24:09.038Z,24.40
2018-07-14T08:26:39.718Z,24.60
2018-07-14T08:29:08.658Z,24.40
2018-07-14T08:31:40.318Z,24.70
2018-07-14T08:36:40.307Z,25.10
2018-07-14T08:39:09.615Z,25.10
2018-07-14T08:41:40.287Z,25.10
2018-07-14T08:44:09.233Z,25.20
2018-07-14T08:46:39.834Z,25.20
2018-07-14T08:49:08.780Z,25.20
2018-07-14T08:51:37.871Z,25.60
2018-07-14T08:54:06.845Z,25.90
2018-07-14T08:56:35.938Z,26.00
2018-07-14T08:59:06.503Z,26.00
2018-07-14T09:01:35.506Z,26.10
2018-07-14T09:04:04.708Z,26.40
2018-07-14T09:06:39.806Z,26.70
2018-07-14T09:09:08.899Z,26.60
2018-07-14T09:11:39.270Z,26.50
2018-07-14T09:14:08.175Z,26.60
2018-07-14T09:16:39.295Z,26.60
2018-07-14T09:19:10.144Z,26.60
2018-07-14T09:21:39.439Z,26.80
2018-07-14T09:24:10.088Z,27.00
2018-07-14T09:26:39.104Z,26.80
2018-07-14T09:29:08.089Z,26.80
2018-07-14T09:31:38.991Z,27.10
2018-07-14T09:36:38.396Z,27.20
2018-07-14T09:39:07.654Z,27.30
2018-07-14T09:41:38.155Z,27.20
2018-07-14T09:44:08.582Z,26.90
2018-07-14T09:46:39.438Z,26.70
2018-07-14T09:49:08.366Z,26.70
2018-07-14T09:51:37.529Z,26.70
2018-07-14T09:54:06.476Z,26.50
2018-07-14T09:56:35.497Z,26.50
2018-07-14T09:59:05.763Z,26.50
2018-07-14T10:01:35.219Z,26.50
2018-07-14T10:04:04.507Z,26.50
2018-07-14T10:06:41.704Z,26.50
2018-07-14T10:09:10.635Z,26.40
2018-07-14T10:11:40.980Z,26.50
2018-07-14T10:14:09.994Z,26.60
2018-07-14T10:16:40.147Z,26.70
2018-07-14T10:19:10.908Z,26.60
2018-07-14T10:21:40.552Z,26.50
2018-07-14T10:24:11.386Z,26.60
2018-07-14T10:26:40.407Z,26.70
2018-07-14T10:29:09.470Z,26.30
2018-07-14T10:31:40.352Z,26.40
2018-07-14T10:34:09.291Z,26.50
2018-07-14T10:36:39.795Z,26.50
2018-07-14T10:39:09.172Z,26.50
2018-07-14T10:41:39.718Z,26.60
2018-07-14T10:44:08.627Z,26.60
2018-07-14T10:46:39.402Z,26.60
2018-07-14T10:49:08.440Z,26.70
2018-07-14T10:51:37.583Z,26.30
2018-07-14T10:54:06.543Z,25.80
2018-07-14T10:56:37.017Z,26.00
2018-07-14T10:59:07.496Z,26.00
2018-07-14T11:01:38.359Z,26.00
2018-07-14T11:04:09.091Z,26.00
2018-07-14T11:06:43.780Z,25.90
2018-07-14T11:09:12.950Z,26.20
2018-07-14T11:11:50.541Z,26.20
2018-07-14T11:14:19.475Z,26.20
2018-07-14T11:21:49.020Z,26.20
2018-07-14T11:26:48.343Z,26.10
2018-07-14T11:29:17.492Z,26.10
2018-07-14T11:31:47.919Z,26.20
2018-07-14T11:34:16.906Z,26.20
2018-07-14T11:36:48.215Z,26.10
2018-07-14T11:39:19.001Z,26.20
2018-07-14T11:41:50.040Z,26.20
2018-07-14T11:44:26.332Z,26.20
2018-07-14T11:46:55.434Z,26.40
2018-07-14T11:49:24.393Z,26.60
2018-07-14T11:51:53.492Z,26.50
2018-07-14T11:54:22.559Z,26.70
2018-07-14T11:56:52.726Z,26.80
2018-07-14T11:59:23.137Z,27.00
2018-07-14T12:01:52.462Z,26.80
2018-07-14T12:04:21.363Z,26.80
2018-07-14T12:06:52.023Z,27.00
2018-07-14T12:09:20.956Z,27.20
2018-07-14T12:11:50.153Z,27.20
2018-07-14T12:14:20.479Z,27.20
2018-07-14T12:16:51.139Z,27.00
2018-07-14T12:19:21.703Z,27.10
2018-07-14T12:21:50.943Z,27.10
2018-07-14T12:24:22.088Z,27.20
2018-07-14T12:26:51.129Z,27.10
2018-07-14T12:29:20.060Z,27.10
2018-07-14T12:31:50.742Z,27.10
2018-07-14T12:36:51.550Z,26.70
2018-07-14T12:39:20.466Z,26.70
2018-07-14T12:41:51.318Z,26.80
2018-07-14T12:44:25.923Z,27.00
2018-07-14T12:46:56.618Z,27.10
2018-07-14T12:49:25.656Z,27.30
2018-07-14T12:51:55.314Z,27.50
2018-07-14T12:56:53.145Z,27.50
2018-07-14T12:59:23.715Z,27.60
2018-07-14T13:01:52.975Z,27.50
2018-07-14T13:04:21.867Z,27.50
2018-07-14T13:06:53.150Z,27.30
2018-07-14T13:09:22.143Z,27.60
2018-07-14T13:11:51.348Z,27.80
2018-07-14T13:14:22.002Z,27.70
2018-07-14T13:16:52.826Z,27.60
2018-07-14T13:19:23.512Z,27.70
2018-07-14T13:21:52.864Z,27.80
2018-07-14T13:24:23.636Z,27.60
2018-07-14T13:26:52.622Z,27.50
2018-07-14T13:29:21.555Z,27.30
2018-07-14T13:31:52.670Z,27.20
2018-07-14T13:34:24.233Z,27.00
2018-07-14T13:36:55.585Z,27.00
2018-07-14T13:39:24.679Z,27.00
2018-07-14T13:41:55.173Z,27.00
2018-07-14T13:44:26.502Z,27.10
2018-07-14T13:46:55.457Z,27.30
2018-07-14T13:49:25.404Z,27.50
2018-07-14T13:51:54.323Z,27.60
2018-07-14T13:54:23.517Z,27.60
2018-07-14T13:56:52.559Z,27.60
2018-07-14T13:59:23.023Z,27.70
2018-07-14T14:04:20.790Z,27.70
2018-07-14T14:06:51.951Z,27.70
2018-07-14T14:09:21.098Z,27.70
2018-07-14T14:11:50.380Z,27.60
2018-07-14T14:14:21.042Z,27.60
2018-07-14T14:16:51.711Z,27.60
2018-07-14T14:21:50.944Z,27.60
2018-07-14T14:24:22.176Z,27.90
2018-07-14T14:26:51.134Z,27.90
2018-07-14T14:29:20.165Z,28.00
2018-07-14T14:32:00.013Z,28.00
2018-07-14T14:34:30.754Z,28.00
2018-07-14T14:36:59.648Z,28.00
2018-07-14T14:42:00.011Z,27.80
2018-07-14T14:44:31.228Z,27.70
2018-07-14T14:47:00.222Z,27.80
2018-07-14T14:49:29.368Z,27.90
2018-07-14T14:52:00.159Z,27.70
2018-07-14T14:54:30.784Z,27.70
2018-07-14T14:56:59.718Z,27.80
2018-07-14T14:59:30.407Z,28.10
2018-07-14T15:01:59.387Z,28.30
2018-07-14T15:04:28.309Z,28.40
2018-07-14T15:06:59.205Z,28.40
2018-07-14T15:09:28.094Z,28.50
2018-07-14T15:11:57.040Z,28.50
2018-07-14T15:14:27.656Z,28.40
2018-07-14T15:16:58.293Z,28.20
2018-07-14T15:19:29.258Z,28.10
2018-07-14T15:21:58.247Z,27.90
2018-07-14T15:24:29.055Z,27.80
2018-07-14T15:26:57.966Z,27.70
2018-07-14T15:29:36.191Z,27.50
2018-07-14T15:32:09.222Z,27.40
2018-07-14T15:34:40.147Z,27.40
2018-07-14T15:37:09.132Z,27.40
2018-07-14T15:39:38.272Z,27.40
2018-07-14T15:42:09.251Z,27.40
2018-07-14T15:44:39.879Z,27.40
2018-07-14T15:47:08.848Z,27.30
2018-07-14T15:49:37.963Z,27.30
2018-07-14T15:52:07.478Z,27.20
2018-07-14T15:54:38.107Z,26.90
2018-07-14T15:57:08.366Z,26.50
2018-07-14T15:59:39.209Z,26.50
2018-07-14T16:02:08.156Z,26.60
2018-07-14T16:04:37.078Z,26.50
2018-07-14T16:07:07.558Z,26.30
2018-07-14T16:09:36.599Z,26.10
2018-07-14T16:12:05.867Z,26.00
2018-07-14T16:17:06.192Z,25.90
2018-07-14T16:19:36.357Z,25.90
2018-07-14T16:22:05.335Z,25.90
2018-07-14T16:24:35.704Z,25.90
2018-07-14T16:27:13.373Z,25.90
2018-07-14T16:29:43.629Z,26.00
2018-07-14T16:32:14.054Z,26.00
2018-07-14T16:34:44.216Z,26.10
2018-07-14T16:39:42.106Z,26.20
2018-07-14T16:42:13.206Z,26.20
2018-07-14T16:44:43.875Z,26.30
2018-07-14T16:47:12.903Z,26.30
2018-07-14T16:49:41.887Z,26.30
2018-07-14T16:52:11.107Z,26.40
2018-07-14T16:54:40.973Z,26.30
2018-07-14T16:57:10.001Z,26.40
2018-07-14T16:59:40.400Z,26.40
2018-07-14T17:02:09.315Z,26.40
2018-07-14T17:04:38.263Z,26.40
2018-07-14T17:07:08.785Z,26.40
2018-07-14T17:09:37.903Z,26.40
2018-07-14T17:12:06.975Z,26.40
2018-07-14T17:14:37.731Z,26.40
2018-07-14T17:17:08.288Z,26.40
2018-07-14T17:19:39.111Z,26.50
2018-07-14T17:22:08.718Z,26.50
2018-07-14T17:24:48.744Z,26.50
2018-07-14T17:27:17.699Z,26.40
2018-07-14T17:29:47.953Z,26.50
2018-07-14T17:32:18.589Z,26.50
2018-07-14T17:34:49.151Z,26.50
2018-07-14T17:37:18.084Z,26.50
2018-07-14T17:39:48.005Z,26.50
2018-07-14T17:42:18.696Z,26.50
2018-07-14T17:44:49.665Z,26.50
2018-07-14T17:47:18.576Z,26.40
2018-07-14T17:49:47.507Z,26.40
2018-07-14T17:52:16.806Z,26.40
2018-07-14T17:54:47.151Z,26.40
2018-07-14T17:59:47.237Z,26.30
2018-07-14T18:02:16.149Z,26.30
2018-07-14T18:04:45.207Z,26.30
2018-07-14T18:07:15.972Z,26.30
2018-07-14T18:09:45.170Z,26.30
2018-07-14T18:12:14.139Z,26.20
2018-07-14T18:14:51.532Z,26.30
2018-07-14T18:17:20.430Z,26.20
2018-07-14T18:19:50.983Z,26.10
2018-07-14T18:22:25.910Z,26.00
2018-07-14T18:24:56.679Z,25.90
2018-07-14T18:27:26.395Z,25.80
2018-07-14T18:30:06.068Z,25.70
2018-07-14T18:32:42.941Z,25.70
2018-07-14T18:35:12.679Z,25.70
2018-07-14T18:37:43.741Z,25.80
2018-07-14T18:40:12.887Z,25.80
2018-07-14T18:42:43.370Z,25.80
2018-07-14T18:45:14.339Z,25.80
2018-07-14T18:47:43.378Z,25.70
2018-07-14T18:50:12.784Z,25.50
2018-07-14T18:52:43.797Z,25.40
2018-07-14T18:55:13.215Z,25.40
2018-07-14T18:57:44.551Z,25.30
2018-07-14T19:00:13.737Z,25.20
2018-07-14T19:02:42.765Z,25.20
2018-07-14T19:05:12.375Z,25.10
2018-07-14T19:07:42.862Z,25.10
2018-07-14T19:10:11.888Z,25.00
2018-07-14T19:12:41.231Z,24.90
2018-07-14T19:15:11.857Z,24.80
2018-07-14T19:17:41.200Z,24.80
2018-07-14T19:20:12.030Z,24.70
2018-07-14T19:22:41.122Z,24.70
2018-07-14T19:25:11.468Z,24.60
2018-07-14T19:27:41.702Z,24.50
2018-07-14T19:30:12.227Z,24.40
2018-07-14T19:32:43.410Z,24.40
2018-07-14T19:35:12.449Z,24.20
2018-07-14T19:37:41.748Z,24.10
2018-07-14T19:40:12.910Z,24.10
2018-07-14T19:42:44.229Z,24.00
2018-07-14T19:45:14.806Z,24.00
2018-07-14T19:47:45.711Z,23.90
2018-07-14T19:50:14.696Z,23.80
2018-07-14T19:52:47.488Z,23.70
2018-07-14T19:55:17.040Z,23.80
2018-07-14T19:57:47.940Z,23.70
2018-07-14T20:00:16.919Z,23.60
2018-07-14T20:02:45.995Z,23.50
2018-07-14T20:05:15.188Z,23.50
2018-07-14T20:07:46.311Z,23.40
2018-07-14T20:10:15.384Z,23.30
2018-07-14T20:12:45.755Z,23.20
2018-07-14T20:15:16.528Z,23.10
2018-07-14T20:20:21.851Z,23.00
2018-07-14T20:22:50.984Z,22.90
2018-07-14T20:25:21.219Z,22.90
2018-07-14T20:27:50.239Z,22.80
2018-07-14T20:30:20.629Z,22.80
2018-07-14T20:32:52.015Z,22.70
2018-07-14T20:35:22.513Z,22.60
2018-07-14T20:37:51.583Z,22.60
2018-07-14T20:40:20.523Z,22.60
2018-07-14T20:42:50.618Z,22.60
2018-07-14T20:45:21.199Z,22.50
2018-07-14T20:47:50.341Z,22.50
2018-07-14T20:50:19.258Z,22.50
2018-07-14T20:52:50.184Z,22.50
2018-07-14T20:55:24.927Z,22.40
2018-07-14T20:57:55.779Z,22.30
2018-07-14T21:00:24.881Z,22.30
2018-07-14T21:02:54.039Z,22.20
2018-07-14T21:07:53.577Z,22.10
2018-07-14T21:10:22.504Z,22.00
2018-07-14T21:12:51.825Z,22.00
2018-07-14T21:15:25.119Z,22.10
2018-07-14T21:17:55.669Z,22.10
2018-07-14T21:20:24.636Z,22.00
2018-07-14T21:22:53.772Z,22.00
2018-07-14T21:25:24.399Z,21.90
2018-07-14T21:27:54.849Z,21.90
2018-07-14T21:30:25.771Z,21.80
2018-07-14T21:32:56.294Z,21.70
2018-07-14T21:35:26.827Z,21.70
2018-07-14T21:37:55.999Z,21.60
2018-07-14T21:40:24.944Z,21.60
2018-07-14T21:42:55.315Z,21.50
2018-07-14T21:45:25.712Z,21.40
2018-07-14T21:47:54.747Z,21.40
2018-07-14T21:50:23.732Z,21.40
2018-07-14T21:52:53.958Z,21.30
2018-07-14T21:55:22.877Z,21.40
2018-07-14T22:01:36.663Z,21.30
2018-07-14T22:04:05.996Z,21.30
2018-07-14T22:06:34.947Z,21.20
2018-07-14T22:09:06.141Z,21.20
2018-07-14T22:11:35.062Z,21.10
2018-07-14T22:14:05.616Z,21.00
2018-07-14T22:19:05.564Z,21.00
2018-07-14T22:21:34.490Z,20.90
2018-07-14T22:24:03.448Z,20.90
2018-07-14T22:26:33.860Z,20.80
2018-07-14T22:29:04.696Z,20.80
2018-07-14T22:31:33.602Z,20.80
2018-07-14T22:34:04.423Z,20.70
2018-07-14T22:36:35.052Z,20.60
2018-07-14T22:39:04.760Z,20.60
2018-07-14T22:41:35.058Z,20.60
2018-07-14T22:44:04.264Z,20.50
2018-07-14T22:46:34.791Z,20.50
2018-07-14T22:49:04.015Z,20.50
2018-07-14T22:51:40.535Z,20.40
2018-07-14T22:54:10.919Z,20.40
2018-07-14T22:56:39.880Z,20.40
2018-07-14T22:59:18.771Z,20.30
2018-07-14T23:01:47.828Z,20.20
2018-07-14T23:04:16.998Z,20.20
2018-07-14T23:06:46.632Z,20.20
2018-07-14T23:09:16.969Z,20.00
2018-07-14T23:11:47.401Z,20.00
2018-07-14T23:14:17.646Z,19.90
2018-07-14T23:16:48.363Z,19.90
2018-07-14T23:19:18.715Z,19.90
2018-07-14T23:21:47.635Z,19.80
2018-07-14T23:24:24.460Z,19.90
2018-07-14T23:26:53.379Z,19.90
2018-07-14T23:29:24.161Z,19.80
2018-07-14T23:31:54.590Z,19.80
2018-07-14T23:34:34.460Z,19.80
2018-07-14T23:37:03.618Z,19.70
2018-07-14T23:39:32.988Z,19.80
2018-07-14T23:42:03.617Z,19.70
2018-07-14T23:44:34.109Z,19.70
2018-07-14T23:47:08.535Z,19.60
2018-07-14T23:49:37.563Z,19.60
2018-07-14T23:52:08.232Z,19.50
2018-07-14T23:54:37.513Z,19.40
2018-07-14T23:57:07.118Z,19.40
2018-07-14T23:59:36.611Z,19.40
